Time;durP1;ratioP1;P1;durP2;ratioP2;P2;SDS_P1;SDS_P2;PMS_P1;PMS_P2;Temp;Humidity;BMP_temperature;BMP_pressure;BME280_temperature;BME280_humidity;BME280_pressure;Samples;Min_cycle;Max_cycle;Signal;HPM_P1;HPM_P2
2023/12/28 00:03:10;;;;;;;3.20;2.73;;;;;;;;;;2613884;39;20780;-77
2023/12/28 00:08:40;;;;;;;4.93;2.70;;;;;;;;;;2612311;54;20429;-75
2023/12/28 00:14:11;;;;;;;4.27;2.70;;;;;;;;;;2613126;54;20372;-76
2023/12/28 00:19:40;;;;;;;6.20;2.83;;;;;;;;;;2614201;54;20392;-78
2023/12/28 00:25:10;;;;;;;4.97;2.40;;;;;;;;;;2613384;54;20350;-78
2023/12/28 00:30:40;;;;;;;3.73;3.00;;;;;;;;;;2613630;54;20384;-77
2023/12/28 00:36:10;;;;;;;4.07;2.67;;;;;;;;;;2613436;54;20387;-76
2023/12/28 00:41:39;;;;;;;8.03;2.70;;;;;;;;;;2612643;31;21082;-77
2023/12/28 00:47:09;;;;;;;3.47;2.83;;;;;;;;;;2611539;54;21096;-74
2023/12/28 00:56:16;;;;;;;5.00;3.60;;;;;;;;;;2612658;54;20383;-76
2023/12/28 01:01:46;;;;;;;3.40;2.50;;;;;;;;;;2612499;54;20402;-75
2023/12/28 01:07:15;;;;;;;21.77;2.30;;;;;;;;;;2611169;46;20424;-74
2023/12/28 01:12:45;;;;;;;6.20;3.43;;;;;;;;;;2613258;54;20398;-74
2023/12/28 01:18:15;;;;;;;10.90;2.80;;;;;;;;;;2613919;54;20414;-74
2023/12/28 01:23:45;;;;;;;3.70;2.60;;;;;;;;;;2613656;54;20393;-74
2023/12/28 01:29:15;;;;;;;3.23;2.73;;;;;;;;;;2614247;54;20430;-74
2023/12/28 01:34:44;;;;;;;6.53;2.60;;;;;;;;;;2612262;54;20361;-74
2023/12/28 01:40:15;;;;;;;3.27;2.23;;;;;;;;;;2614312;39;20775;-77
2023/12/28 01:45:45;;;;;;;7.73;2.40;;;;;;;;;;2613125;54;20475;-74
2023/12/28 01:51:15;;;;;;;5.80;2.37;;;;;;;;;;2614494;39;20793;-74
2023/12/28 01:56:46;;;;;;;5.27;2.60;;;;;;;;;;2613305;39;20801;-76
2023/12/28 02:02:16;;;;;;;3.63;2.17;;;;;;;;;;2614071;54;20367;-77
2023/12/28 02:07:46;;;;;;;4.03;2.73;;;;;;;;;;2612902;39;20860;-77
2023/12/28 02:13:15;;;;;;;5.73;2.23;;;;;;;;;;2613623;54;20390;-76
2023/12/28 02:18:48;;;;;;;4.70;2.43;;;;;;;;;;2612933;54;20494;-78
2023/12/28 02:24:17;;;;;;;3.50;2.40;;;;;;;;;;2611468;54;20362;-77
2023/12/28 02:29:47;;;;;;;4.30;1.33;;;;;;;;;;2613037;54;20366;-77
2023/12/28 02:35:17;;;;;;;4.17;2.47;;;;;;;;;;2613267;54;20393;-77
2023/12/28 02:40:48;;;;;;;3.13;1.90;;;;;;;;;;2611520;54;20916;-78
2023/12/28 02:46:18;;;;;;;3.10;2.53;;;;;;;;;;2613436;54;20355;-77
2023/12/28 02:51:47;;;;;;;5.50;2.40;;;;;;;;;;2614169;54;20407;-79
2023/12/28 03:00:49;;;;;;;3.67;2.40;;;;;;;;;;2612806;54;20899;-79
2023/12/28 03:03:34;;;;;;;4.50;2.63;;;;;;;;;;2613083;54;20414;-78
2023/12/28 03:06:00;;;;;;;3.27;2.77;;;;;;;;;;2613401;54;21301;-79
2023/12/28 03:11:30;;;;;;;2.93;2.20;;;;;;;;;;2613994;54;20405;-77
2023/12/28 03:17:00;;;;;;;3.37;2.23;;;;;;;;;;2613955;54;21315;-72
2023/12/28 03:22:29;;;;;;;3.63;3.20;;;;;;;;;;2612832;54;20386;-75
2023/12/28 03:27:59;;;;;;;6.33;2.80;;;;;;;;;;2613681;54;20410;-77
2023/12/28 03:33:28;;;;;;;4.57;2.17;;;;;;;;;;2613798;54;20405;-80
2023/12/28 03:38:58;;;;;;;4.13;2.40;;;;;;;;;;2611420;54;20390;-76
2023/12/28 03:44:28;;;;;;;3.43;2.77;;;;;;;;;;2614026;54;20403;-78
2023/12/28 03:49:57;;;;;;;4.33;3.10;;;;;;;;;;2613098;54;20388;-78
2023/12/28 03:55:27;;;;;;;2.47;2.03;;;;;;;;;;2611244;39;20926;-77
2023/12/28 04:04:35;;;;;;;3.70;2.20;;;;;;;;;;2614109;54;20360;-79
2023/12/28 04:10:05;;;;;;;8.00;2.73;;;;;;;;;;2613243;54;20366;-78
2023/12/28 04:15:34;;;;;;;4.47;2.40;;;;;;;;;;2612022;54;20384;-80
2023/12/28 04:21:05;;;;;;;4.13;2.97;;;;;;;;;;2614529;54;20469;-78
2023/12/28 04:26:35;;;;;;;5.40;2.60;;;;;;;;;;2613486;54;20963;-77
2023/12/28 04:32:04;;;;;;;3.23;2.30;;;;;;;;;;2612658;54;20422;-78
2023/12/28 04:37:35;;;;;;;3.23;2.57;;;;;;;;;;2613870;54;20926;-79
2023/12/28 04:43:04;;;;;;;3.80;2.70;;;;;;;;;;2613745;54;20441;-78
2023/12/28 04:48:35;;;;;;;5.77;2.80;;;;;;;;;;2613914;54;20408;-78
2023/12/28 04:54:04;;;;;;;5.67;2.80;;;;;;;;;;2612397;54;20913;-77
2023/12/28 04:59:38;;;;;;;5.23;2.30;;;;;;;;;;2612895;54;20386;-80
2023/12/28 05:08:41;;;;;;;2.07;1.20;;;;;;;;;;2613799;54;20378;-80
2023/12/28 05:14:10;;;;;;;9.23;2.30;;;;;;;;;;2613927;54;20937;-80
2023/12/28 05:19:40;;;;;;;4.03;2.30;;;;;;;;;;2613653;54;20881;-79
2023/12/28 05:25:10;;;;;;;2.50;2.00;;;;;;;;;;2611575;54;20391;-79
2023/12/28 05:30:39;;;;;;;2.90;2.57;;;;;;;;;;2611458;54;21503;-79
2023/12/28 05:36:09;;;;;;;3.53;1.73;;;;;;;;;;2614058;54;20379;-81
2023/12/28 05:41:38;;;;;;;3.60;2.10;;;;;;;;;;2612865;54;20386;-79
2023/12/28 05:47:08;;;;;;;4.87;2.13;;;;;;;;;;2610665;54;20391;-74
2023/12/28 05:52:38;;;;;;;6.40;2.23;;;;;;;;;;2612927;54;20972;-74
2023/12/28 05:58:07;;;;;;;5.60;3.40;;;;;;;;;;2613493;54;20362;-75
2023/12/28 06:03:37;;;;;;;10.17;2.50;;;;;;;;;;2611472;54;20383;-73
2023/12/28 06:09:07;;;;;;;3.67;2.60;;;;;;;;;;2614113;54;20412;-75
2023/12/28 06:14:37;;;;;;;5.07;2.90;;;;;;;;;;2613493;54;20422;-73
2023/12/28 06:20:08;;;;;;;4.33;1.77;;;;;;;;;;2613427;39;20772;-74
2023/12/28 06:25:38;;;;;;;4.07;2.40;;;;;;;;;;2613049;54;20418;-74
2023/12/28 06:31:07;;;;;;;2.53;1.90;;;;;;;;;;2612147;54;20387;-73
2023/12/28 06:36:38;;;;;;;4.10;2.13;;;;;;;;;;2613325;54;20419;-75
2023/12/28 06:42:07;;;;;;;4.53;2.10;;;;;;;;;;2614131;54;20485;-75
2023/12/28 06:47:38;;;;;;;2.90;2.00;;;;;;;;;;2612333;54;20379;-79
2023/12/28 06:53:08;;;;;;;5.40;2.87;;;;;;;;;;2609750;54;20423;-80
2023/12/28 06:58:38;;;;;;;4.33;1.77;;;;;;;;;;2612172;54;20382;-80
2023/12/28 07:04:07;;;;;;;2.17;1.80;;;;;;;;;;2612283;54;20377;-80
2023/12/28 07:09:37;;;;;;;5.67;2.60;;;;;;;;;;2613320;54;20390;-81
2023/12/28 07:15:07;;;;;;;3.93;2.20;;;;;;;;;;2611966;39;20848;-78
2023/12/28 07:20:36;;;;;;;12.03;3.00;;;;;;;;;;2612620;39;20742;-79
2023/12/28 07:26:06;;;;;;;6.20;2.50;;;;;;;;;;2611891;54;20354;-79
2023/12/28 07:31:36;;;;;;;6.37;2.73;;;;;;;;;;2614562;31;20791;-75
2023/12/28 07:37:06;;;;;;;3.77;1.77;;;;;;;;;;2612667;54;20402;-72
2023/12/28 07:42:36;;;;;;;12.63;2.63;;;;;;;;;;2612822;54;20353;-72
2023/12/28 07:48:06;;;;;;;3.03;2.00;;;;;;;;;;2612511;54;20379;-71
2023/12/28 07:53:35;;;;;;;6.60;2.20;;;;;;;;;;2612167;54;20388;-71
2023/12/28 07:59:06;;;;;;;6.57;2.57;;;;;;;;;;2611710;54;20401;-77
2023/12/28 08:10:43;;;;;;;4.10;2.83;;;;;;;;;;2612570;54;20372;-77
2023/12/28 08:16:13;;;;;;;2.47;2.00;;;;;;;;;;2613571;54;20451;-78
2023/12/28 08:21:42;;;;;;;6.13;2.80;;;;;;;;;;2612984;54;20375;-78
2023/12/28 08:27:12;;;;;;;5.50;3.13;;;;;;;;;;2612112;54;20395;-79
2023/12/28 08:32:41;;;;;;;4.00;2.20;;;;;;;;;;2614375;47;20386;-80
2023/12/28 08:38:11;;;;;;;7.50;2.63;;;;;;;;;;2612537;54;20426;-79
2023/12/28 08:43:41;;;;;;;9.70;2.63;;;;;;;;;;2612209;54;20390;-77
2023/12/28 08:49:10;;;;;;;8.47;2.50;;;;;;;;;;2613028;54;20441;-79
2023/12/28 08:54:41;;;;;;;6.73;2.63;;;;;;;;;;2612088;54;20399;-79
2023/12/28 09:00:11;;;;;;;4.00;2.30;;;;;;;;;;2613600;54;20402;-78
2023/12/28 09:09:09;;;;;;;4.70;2.63;;;;;;;;;;2613969;54;20443;-78
2023/12/28 09:14:39;;;;;;;11.00;3.37;;;;;;;;;;2613040;54;20418;-80
2023/12/28 09:20:08;;;;;;;4.63;3.40;;;;;;;;;;2613571;54;20929;-79
2023/12/28 09:25:38;;;;;;;6.53;2.47;;;;;;;;;;2613634;54;20390;-79
2023/12/28 09:31:08;;;;;;;7.40;2.77;;;;;;;;;;2613990;54;20412;-78
2023/12/28 09:33:53;;;;;;;7.27;2.97;;;;;;;;;;2611713;54;20434;-80
2023/12/28 09:36:20;;;;;;;7.33;3.00;;;;;;;;;;2613156;54;20490;-79
2023/12/28 09:41:53;;;;;;;4.93;3.23;;;;;;;;;;2612756;54;20499;-78
2023/12/28 09:47:22;;;;;;;6.80;2.80;;;;;;;;;;2613821;54;20423;-75
2023/12/28 09:52:53;;;;;;;3.97;2.57;;;;;;;;;;2612592;54;20978;-78
2023/12/28 09:58:23;;;;;;;10.13;2.67;;;;;;;;;;2612073;54;20432;-80
2023/12/28 10:03:53;;;;;;;8.23;2.50;;;;;;;;;;2612835;54;20387;-77
2023/12/28 10:12:57;;;;;;;3.50;2.03;;;;;;;;;;2613413;54;20953;-78
2023/12/28 10:18:27;;;;;;;6.50;2.90;;;;;;;;;;2613746;54;20363;-82
2023/12/28 10:23:56;;;;;;;13.10;3.40;;;;;;;;;;2612678;54;20402;-78
2023/12/28 10:29:27;;;;;;;5.70;2.60;;;;;;;;;;2613889;54;20515;-79
2023/12/28 10:34:57;;;;;;;8.40;3.20;;;;;;;;;;2612794;54;20390;-78
2023/12/28 10:40:27;;;;;;;4.03;2.50;;;;;;;;;;2612496;39;20743;-78
2023/12/28 10:45:57;;;;;;;3.87;2.50;;;;;;;;;;2613257;39;20758;-76
2023/12/28 10:51:28;;;;;;;8.73;2.87;;;;;;;;;;2612744;39;20750;-78
2023/12/28 10:57:04;;;;;;;9.47;3.20;;;;;;;;;;2611255;54;20359;-78
2023/12/28 11:02:39;;;;;;;8.50;3.33;;;;;;;;;;2612472;54;20402;-77
2023/12/28 11:08:09;;;;;;;5.37;3.00;;;;;;;;;;2613178;54;20418;-77
2023/12/28 11:13:40;;;;;;;3.30;2.53;;;;;;;;;;2613660;46;20410;-79
2023/12/28 11:19:11;;;;;;;9.20;3.33;;;;;;;;;;2614303;54;20387;-79
2023/12/28 11:24:40;;;;;;;6.40;2.67;;;;;;;;;;2612735;54;20982;-75
2023/12/28 11:30:11;;;;;;;9.30;2.60;;;;;;;;;;2614436;54;20406;-73
2023/12/28 11:35:41;;;;;;;12.23;2.33;;;;;;;;;;2613601;54;20419;-74
2023/12/28 11:41:10;;;;;;;10.03;3.60;;;;;;;;;;2614371;54;20406;-77
2023/12/28 11:46:40;;;;;;;13.03;3.50;;;;;;;;;;2614106;39;20822;-72
2023/12/28 11:52:13;;;;;;;8.17;2.80;;;;;;;;;;2612908;54;20405;-73
2023/12/28 11:57:43;;;;;;;5.67;2.80;;;;;;;;;;2612833;54;20382;-73
2023/12/28 12:03:12;;;;;;;4.23;2.07;;;;;;;;;;2612604;54;20421;-74
2023/12/28 12:14:49;;;;;;;3.50;2.60;;;;;;;;;;2614131;54;20379;-77
2023/12/28 12:20:20;;;;;;;9.03;3.27;;;;;;;;;;2613976;54;20446;-78
2023/12/28 12:25:49;;;;;;;9.73;3.00;;;;;;;;;;2613167;54;20401;-77
2023/12/28 12:31:20;;;;;;;2.50;2.03;;;;;;;;;;2613813;54;20362;-77
2023/12/28 12:36:52;;;;;;;4.03;2.93;;;;;;;;;;2613540;54;20354;-77
2023/12/28 12:42:21;;;;;;;8.40;3.43;;;;;;;;;;2614097;54;20403;-78
2023/12/28 12:47:52;;;;;;;9.60;3.13;;;;;;;;;;2614318;54;20367;-78
2023/12/28 12:53:22;;;;;;;8.23;3.20;;;;;;;;;;2613832;54;21029;-76
2023/12/28 12:58:51;;;;;;;2.60;2.40;;;;;;;;;;2613811;54;20343;-77
2023/12/28 13:04:21;;;;;;;3.47;3.17;;;;;;;;;;2614739;54;20415;-78
2023/12/28 13:09:51;;;;;;;4.47;2.60;;;;;;;;;;2613355;54;21012;-78
2023/12/28 13:15:20;;;;;;;7.50;2.47;;;;;;;;;;2614465;54;20393;-79
2023/12/28 13:20:50;;;;;;;10.03;3.17;;;;;;;;;;2614341;54;20413;-78
2023/12/28 13:26:20;;;;;;;4.37;3.10;;;;;;;;;;2613958;54;20418;-77
2023/12/28 13:31:50;;;;;;;10.33;3.50;;;;;;;;;;2613638;54;20387;-77
2023/12/28 13:37:19;;;;;;;3.20;2.90;;;;;;;;;;2614472;54;20948;-77
2023/12/28 13:42:49;;;;;;;4.83;3.77;;;;;;;;;;2614029;54;20941;-76
2023/12/28 13:48:19;;;;;;;4.33;3.47;;;;;;;;;;2613759;54;20423;-77
2023/12/28 13:53:48;;;;;;;3.73;3.27;;;;;;;;;;2613891;54;20355;-73
2023/12/28 13:59:18;;;;;;;8.70;3.80;;;;;;;;;;2611616;54;20394;-74
2023/12/28 14:04:47;;;;;;;6.97;3.20;;;;;;;;;;2613900;54;20487;-75
2023/12/28 14:16:24;;;;;;;9.23;2.97;;;;;;;;;;2614236;54;20398;-76
2023/12/28 14:21:54;;;;;;;3.23;2.50;;;;;;;;;;2613185;54;20374;-73
2023/12/28 14:27:24;;;;;;;4.10;2.27;;;;;;;;;;2613414;39;20781;-73
2023/12/28 14:32:53;;;;;;;5.07;3.40;;;;;;;;;;2613744;54;20482;-73
2023/12/28 14:38:23;;;;;;;7.30;3.37;;;;;;;;;;2613389;54;20399;-72
2023/12/28 14:43:54;;;;;;;2.47;2.20;;;;;;;;;;2615388;39;20919;-77
2023/12/28 14:49:23;;;;;;;4.73;2.83;;;;;;;;;;2615262;54;20535;-77
2023/12/28 14:54:56;;;;;;;4.30;2.53;;;;;;;;;;2615282;39;20790;-77
2023/12/28 15:00:26;;;;;;;5.50;4.13;;;;;;;;;;2615000;54;20386;-71
2023/12/28 15:05:56;;;;;;;4.43;2.80;;;;;;;;;;2614000;54;20435;-73
2023/12/28 15:15:00;;;;;;;4.30;2.67;;;;;;;;;;2614745;54;20422;-73
2023/12/28 15:20:29;;;;;;;3.07;2.80;;;;;;;;;;2614064;54;20423;-72
2023/12/28 15:25:59;;;;;;;5.80;3.10;;;;;;;;;;2614551;54;20427;-74
2023/12/28 15:31:29;;;;;;;4.20;2.83;;;;;;;;;;2614214;54;20388;-72
2023/12/28 15:34:15;;;;;;;4.70;2.43;;;;;;;;;;2611804;54;20395;-71
2023/12/28 15:36:41;;;;;;;21.93;3.93;;;;;;;;;;2614261;54;20424;-73
2023/12/28 15:42:10;;;;;;;7.63;3.27;;;;;;;;;;2614636;54;20383;-72
2023/12/28 15:47:40;;;;;;;3.60;2.60;;;;;;;;;;2613836;54;20387;-74
2023/12/28 15:53:10;;;;;;;8.70;2.40;;;;;;;;;;2614518;54;20380;-77
2023/12/28 15:58:41;;;;;;;12.63;3.13;;;;;;;;;;2615211;54;20395;-75
2023/12/28 16:04:10;;;;;;;3.57;3.00;;;;;;;;;;2614783;54;20391;-73
2023/12/28 16:09:40;;;;;;;10.27;3.20;;;;;;;;;;2613544;54;20387;-73
2023/12/28 16:15:16;;;;;;;6.47;3.03;;;;;;;;;;2614174;54;20386;-72
2023/12/28 16:20:55;;;;;;;3.30;3.00;;;;;;;;;;2615107;54;20395;-73
2023/12/28 16:26:28;;;;;;;6.30;2.57;;;;;;;;;;2615323;54;20390;-74
2023/12/28 16:32:00;;;;;;;12.00;3.40;;;;;;;;;;2614857;54;20363;-74
2023/12/28 16:37:30;;;;;;;8.93;2.50;;;;;;;;;;2615148;39;20986;-73
2023/12/28 16:43:04;;;;;;;5.50;2.90;;;;;;;;;;2614371;54;20427;-74
2023/12/28 16:48:34;;;;;;;3.13;2.83;;;;;;;;;;2612403;54;20933;-73
2023/12/28 16:54:04;;;;;;;9.90;4.20;;;;;;;;;;2613606;54;20467;-74
2023/12/28 16:59:33;;;;;;;3.30;2.43;;;;;;;;;;2614462;54;20363;-73
2023/12/28 17:05:04;;;;;;;3.90;2.47;;;;;;;;;;2615044;54;20378;-75
2023/12/28 17:10:34;;;;;;;4.93;2.53;;;;;;;;;;2614639;39;20761;-73
2023/12/28 17:16:07;;;;;;;4.70;3.00;;;;;;;;;;2613784;54;20391;-74
2023/12/28 17:21:39;;;;;;;4.37;2.70;;;;;;;;;;2614495;39;20469;-74
2023/12/28 17:27:13;;;;;;;15.83;3.00;;;;;;;;;;2614442;54;20362;-75
2023/12/28 17:32:44;;;;;;;3.77;3.37;;;;;;;;;;2613458;54;20949;-76
2023/12/28 17:38:14;;;;;;;7.93;3.33;;;;;;;;;;2614681;54;20384;-77
2023/12/28 17:43:47;;;;;;;9.30;3.80;;;;;;;;;;2613306;39;20796;-77
2023/12/28 17:49:23;;;;;;;7.30;2.80;;;;;;;;;;2614187;54;21000;-76
2023/12/28 17:54:53;;;;;;;4.80;2.83;;;;;;;;;;2614025;39;20750;-75
2023/12/28 18:00:22;;;;;;;8.10;3.70;;;;;;;;;;2613098;54;20359;-78
2023/12/28 18:05:52;;;;;;;8.00;4.10;;;;;;;;;;2614507;54;20354;-78
2023/12/28 18:15:02;;;;;;;6.80;3.23;;;;;;;;;;2614821;54;21048;-79
2023/12/28 18:20:32;;;;;;;3.23;2.93;;;;;;;;;;2614410;54;20399;-77
2023/12/28 18:26:01;;;;;;;5.60;3.30;;;;;;;;;;2613746;54;20351;-78
2023/12/28 18:31:31;;;;;;;4.73;3.20;;;;;;;;;;2613176;54;20347;-73
2023/12/28 18:37:06;;;;;;;14.60;2.27;;;;;;;;;;2613399;54;20382;-74
2023/12/28 18:42:37;;;;;;;5.33;2.67;;;;;;;;;;2612964;54;20347;-74
2023/12/28 18:48:11;;;;;;;17.40;4.87;;;;;;;;;;2615141;54;20395;-75
2023/12/28 18:59:41;;;;;;;2.90;2.47;;;;;;;;;;2613674;54;20375;-76
2023/12/28 19:05:13;;;;;;;8.50;2.97;;;;;;;;;;2614309;54;20411;-75
2023/12/28 19:16:59;;;;;;;14.03;3.40;;;;;;;;;;2614480;39;20758;-78
2023/12/28 19:22:28;;;;;;;11.40;3.90;;;;;;;;;;2614310;54;20375;-79
2023/12/28 19:28:01;;;;;;;3.40;2.93;;;;;;;;;;2614305;39;20772;-78
2023/12/28 19:33:33;;;;;;;6.80;4.17;;;;;;;;;;2614219;54;20405;-77
2023/12/28 19:39:10;;;;;;;9.93;3.87;;;;;;;;;;2614896;54;20350;-78
2023/12/28 19:44:39;;;;;;;6.37;3.30;;;;;;;;;;2614809;46;20410;-74
2023/12/28 19:50:10;;;;;;;6.30;3.70;;;;;;;;;;2614421;54;20370;-74
2023/12/28 19:55:48;;;;;;;4.33;3.00;;;;;;;;;;2613496;54;20387;-73
2023/12/28 20:01:20;;;;;;;12.53;6.03;;;;;;;;;;2613895;54;20902;-74
2023/12/28 20:06:50;;;;;;;8.70;4.03;;;;;;;;;;2614387;54;20355;-72
2023/12/28 20:16:05;;;;;;;3.77;2.83;;;;;;;;;;2613546;54;20495;-74
2023/12/28 20:21:39;;;;;;;4.77;2.80;;;;;;;;;;2613798;54;20378;-75
2023/12/28 20:27:09;;;;;;;10.10;2.80;;;;;;;;;;2614125;39;20693;-72
2023/12/28 20:32:39;;;;;;;3.80;3.27;;;;;;;;;;2614073;54;20509;-73
2023/12/28 20:38:11;;;;;;;4.40;3.17;;;;;;;;;;2614112;54;20366;-73
2023/12/28 20:43:43;;;;;;;2.63;2.43;;;;;;;;;;2613639;54;20374;-73
2023/12/28 20:49:18;;;;;;;11.50;3.10;;;;;;;;;;2614004;54;20370;-74
2023/12/28 20:54:48;;;;;;;4.40;3.60;;;;;;;;;;2612471;54;20418;-74
2023/12/28 21:00:20;;;;;;;2.60;2.20;;;;;;;;;;2613585;54;20543;-74
2023/12/28 21:05:50;;;;;;;4.93;3.00;;;;;;;;;;2614460;54;20510;-76
2023/12/28 21:11:22;;;;;;;3.53;2.50;;;;;;;;;;2614378;54;20423;-75
2023/12/28 21:16:52;;;;;;;7.60;3.23;;;;;;;;;;2614169;39;20900;-75
2023/12/28 21:22:21;;;;;;;5.33;2.40;;;;;;;;;;2613415;39;20763;-75
2023/12/28 21:27:51;;;;;;;6.00;2.77;;;;;;;;;;2611583;39;20816;-75
2023/12/28 21:33:21;;;;;;;7.63;3.47;;;;;;;;;;2612709;54;20382;-74
2023/12/28 21:38:51;;;;;;;7.50;2.83;;;;;;;;;;2611668;54;20358;-75
2023/12/28 21:44:22;;;;;;;3.83;2.37;;;;;;;;;;2612349;54;20965;-75
2023/12/28 21:49:53;;;;;;;6.23;2.50;;;;;;;;;;2612987;54;20758;-75
2023/12/28 21:55:22;;;;;;;6.17;3.20;;;;;;;;;;2610626;54;20359;-75
2023/12/28 22:00:53;;;;;;;4.33;2.80;;;;;;;;;;2610037;54;20393;-79
2023/12/28 22:06:23;;;;;;;3.13;2.33;;;;;;;;;;2614080;54;20407;-75
2023/12/28 22:18:01;;;;;;;4.97;2.67;;;;;;;;;;2612040;54;20886;-74
2023/12/28 22:23:31;;;;;;;3.73;2.80;;;;;;;;;;2612632;54;20479;-75
2023/12/28 22:29:01;;;;;;;9.17;4.10;;;;;;;;;;2612836;54;20359;-75
2023/12/28 22:34:30;;;;;;;5.57;3.20;;;;;;;;;;2613835;54;20358;-75
2023/12/28 22:40:01;;;;;;;11.90;3.10;;;;;;;;;;2614205;54;20396;-74
2023/12/28 22:45:31;;;;;;;7.30;2.47;;;;;;;;;;2610207;54;20989;-75
2023/12/28 22:57:08;;;;;;;3.90;2.77;;;;;;;;;;2612071;54;20388;-75
2023/12/28 23:02:38;;;;;;;6.37;3.40;;;;;;;;;;2611791;54;20543;-74
2023/12/28 23:08:07;;;;;;;3.20;2.53;;;;;;;;;;2613449;39;20778;-77
2023/12/28 23:17:07;;;;;;;2.27;2.07;;;;;;;;;;2612828;54;20413;-74
2023/12/28 23:22:36;;;;;;;6.53;2.83;;;;;;;;;;2613929;39;20774;-76
2023/12/28 23:28:09;;;;;;;4.00;2.60;;;;;;;;;;2613309;54;20474;-75
2023/12/28 23:33:39;;;;;;;29.10;5.10;;;;;;;;;;2614892;39;20747;-74
2023/12/28 23:39:08;;;;;;;3.23;2.70;;;;;;;;;;2614592;54;20355;-75
2023/12/28 23:44:38;;;;;;;18.83;4.40;;;;;;;;;;2614891;54;20382;-76
2023/12/28 23:50:08;;;;;;;5.97;2.27;;;;;;;;;;2614585;54;20384;-75
2023/12/28 23:55:37;;;;;;;8.20;3.00;;;;;;;;;;2614957;54;20933;-75
